sensor_id;sensor_type;location;lat;lon;timestamp;P1;durP1;ratioP1;P2;durP2;ratioP2
66145;SDS011;52948;60.040;30.320;2023-06-22T00:03:20;6.93;;;4.85;;
66145;SDS011;52948;60.040;30.320;2023-06-22T00:08:24;5.15;;;4.00;;
66145;SDS011;52948;60.040;30.320;2023-06-22T00:13:30;6.80;;;4.10;;
66145;SDS011;52948;60.040;30.320;2023-06-22T00:18:32;5.60;;;4.00;;
66145;SDS011;52948;60.040;30.320;2023-06-22T00:23:34;8.23;;;4.50;;
66145;SDS011;52948;60.040;30.320;2023-06-22T00:28:37;6.97;;;4.57;;
66145;SDS011;52948;60.040;30.320;2023-06-22T00:33:39;7.13;;;4.57;;
66145;SDS011;52948;60.040;30.320;2023-06-22T00:38:41;11.40;;;4.78;;
66145;SDS011;52948;60.040;30.320;2023-06-22T00:43:44;8.18;;;4.57;;
66145;SDS011;52948;60.040;30.320;2023-06-22T00:48:47;10.05;;;4.70;;
66145;SDS011;52948;60.040;30.320;2023-06-22T00:53:49;6.20;;;4.93;;
66145;SDS011;52948;60.040;30.320;2023-06-22T00:58:53;6.20;;;4.05;;
66145;SDS011;52948;60.040;30.320;2023-06-22T01:03:56;5.60;;;3.83;;
66145;SDS011;52948;60.040;30.320;2023-06-22T01:09:02;7.95;;;4.50;;
66145;SDS011;52948;60.040;30.320;2023-06-22T01:24:32;7.63;;;5.00;;
66145;SDS011;52948;60.040;30.320;2023-06-22T01:29:49;6.57;;;4.20;;
66145;SDS011;52948;60.040;30.320;2023-06-22T01:34:53;6.50;;;4.55;;
66145;SDS011;52948;60.040;30.320;2023-06-22T01:39:56;8.10;;;4.25;;
66145;SDS011;52948;60.040;30.320;2023-06-22T01:44:58;5.63;;;4.20;;
66145;SDS011;52948;60.040;30.320;2023-06-22T01:50:01;6.20;;;4.68;;
66145;SDS011;52948;60.040;30.320;2023-06-22T01:55:04;9.38;;;4.50;;
66145;SDS011;52948;60.040;30.320;2023-06-22T02:00:09;8.40;;;4.47;;
66145;SDS011;52948;60.040;30.320;2023-06-22T02:10:48;6.82;;;4.75;;
66145;SDS011;52948;60.040;30.320;2023-06-22T02:15:51;7.38;;;4.70;;
66145;SDS011;52948;60.040;30.320;2023-06-22T02:20:53;7.32;;;5.03;;
66145;SDS011;52948;60.040;30.320;2023-06-22T02:25:56;6.43;;;4.40;;
66145;SDS011;52948;60.040;30.320;2023-06-22T02:31:00;7.47;;;4.65;;
66145;SDS011;52948;60.040;30.320;2023-06-22T02:36:02;7.55;;;4.80;;
66145;SDS011;52948;60.040;30.320;2023-06-22T02:41:10;7.10;;;4.97;;
66145;SDS011;52948;60.040;30.320;2023-06-22T02:56:46;10.77;;;5.50;;
66145;SDS011;52948;60.040;30.320;2023-06-22T03:01:50;9.93;;;5.30;;
66145;SDS011;52948;60.040;30.320;2023-06-22T03:06:57;8.50;;;6.05;;
66145;SDS011;52948;60.040;30.320;2023-06-22T03:12:05;8.73;;;6.35;;
66145;SDS011;52948;60.040;30.320;2023-06-22T03:17:29;10.93;;;6.18;;
66145;SDS011;52948;60.040;30.320;2023-06-22T03:22:31;11.05;;;6.05;;
66145;SDS011;52948;60.040;30.320;2023-06-22T03:27:34;11.85;;;6.35;;
66145;SDS011;52948;60.040;30.320;2023-06-22T03:32:36;15.45;;;6.57;;
66145;SDS011;52948;60.040;30.320;2023-06-22T03:37:40;12.23;;;6.50;;
66145;SDS011;52948;60.040;30.320;2023-06-22T03:42:43;9.52;;;5.82;;
66145;SDS011;52948;60.040;30.320;2023-06-22T03:47:45;14.05;;;6.15;;
66145;SDS011;52948;60.040;30.320;2023-06-22T03:52:47;12.55;;;5.90;;
66145;SDS011;52948;60.040;30.320;2023-06-22T03:57:50;12.18;;;6.10;;
66145;SDS011;52948;60.040;30.320;2023-06-22T04:02:52;11.77;;;6.13;;
66145;SDS011;52948;60.040;30.320;2023-06-22T04:07:54;8.13;;;5.97;;
66145;SDS011;52948;60.040;30.320;2023-06-22T04:12:56;9.15;;;5.85;;
66145;SDS011;52948;60.040;30.320;2023-06-22T04:17:59;9.10;;;5.60;;
66145;SDS011;52948;60.040;30.320;2023-06-22T04:23:01;8.75;;;6.00;;
66145;SDS011;52948;60.040;30.320;2023-06-22T04:28:03;11.85;;;6.40;;
66145;SDS011;52948;60.040;30.320;2023-06-22T04:33:06;10.27;;;6.03;;
66145;SDS011;52948;60.040;30.320;2023-06-22T04:38:08;9.77;;;6.53;;
66145;SDS011;52948;60.040;30.320;2023-06-22T04:43:10;12.52;;;6.88;;
66145;SDS011;52948;60.040;30.320;2023-06-22T05:31:54;11.55;;;6.35;;
66145;SDS011;52948;60.040;30.320;2023-06-22T06:12:20;11.65;;;5.97;;
66145;SDS011;52948;60.040;30.320;2023-06-22T06:17:22;8.65;;;5.88;;
66145;SDS011;52948;60.040;30.320;2023-06-22T06:22:25;8.07;;;6.25;;
66145;SDS011;52948;60.040;30.320;2023-06-22T06:27:27;11.43;;;6.28;;
66145;SDS011;52948;60.040;30.320;2023-06-22T06:32:31;10.43;;;6.82;;
66145;SDS011;52948;60.040;30.320;2023-06-22T06:37:37;9.30;;;6.05;;
66145;SDS011;52948;60.040;30.320;2023-06-22T06:42:41;9.02;;;6.28;;
66145;SDS011;52948;60.040;30.320;2023-06-22T06:47:47;10.13;;;5.90;;
66145;SDS011;52948;60.040;30.320;2023-06-22T06:52:50;8.70;;;5.88;;
66145;SDS011;52948;60.040;30.320;2023-06-22T06:57:52;10.45;;;5.97;;
66145;SDS011;52948;60.040;30.320;2023-06-22T07:02:54;7.65;;;5.70;;
66145;SDS011;52948;60.040;30.320;2023-06-22T07:07:56;8.75;;;5.60;;
66145;SDS011;52948;60.040;30.320;2023-06-22T07:12:58;7.53;;;5.65;;
66145;SDS011;52948;60.040;30.320;2023-06-22T07:18:00;8.50;;;5.45;;
66145;SDS011;52948;60.040;30.320;2023-06-22T07:23:03;9.20;;;5.68;;
66145;SDS011;52948;60.040;30.320;2023-06-22T07:28:06;7.05;;;5.22;;
66145;SDS011;52948;60.040;30.320;2023-06-22T07:33:08;10.90;;;5.18;;
66145;SDS011;52948;60.040;30.320;2023-06-22T07:38:16;10.43;;;6.07;;
66145;SDS011;52948;60.040;30.320;2023-06-22T07:43:18;7.63;;;5.60;;
66145;SDS011;52948;60.040;30.320;2023-06-22T07:48:21;6.07;;;5.18;;
66145;SDS011;52948;60.040;30.320;2023-06-22T07:53:24;9.15;;;5.78;;
66145;SDS011;52948;60.040;30.320;2023-06-22T07:58:26;9.85;;;5.30;;
66145;SDS011;52948;60.040;30.320;2023-06-22T08:03:28;7.45;;;5.00;;
66145;SDS011;52948;60.040;30.320;2023-06-22T08:08:31;9.35;;;5.25;;
66145;SDS011;52948;60.040;30.320;2023-06-22T08:13:33;8.55;;;5.63;;
66145;SDS011;52948;60.040;30.320;2023-06-22T08:18:40;10.98;;;5.90;;
66145;SDS011;52948;60.040;30.320;2023-06-22T08:23:48;12.70;;;6.32;;
66145;SDS011;52948;60.040;30.320;2023-06-22T08:28:50;6.75;;;5.78;;
66145;SDS011;52948;60.040;30.320;2023-06-22T08:33:52;9.73;;;6.35;;
66145;SDS011;52948;60.040;30.320;2023-06-22T08:39:00;8.75;;;6.28;;
66145;SDS011;52948;60.040;30.320;2023-06-22T08:44:04;7.63;;;6.32;;
66145;SDS011;52948;60.040;30.320;2023-06-22T08:49:07;15.30;;;7.10;;
66145;SDS011;52948;60.040;30.320;2023-06-22T08:54:09;11.15;;;6.20;;
66145;SDS011;52948;60.040;30.320;2023-06-22T09:04:38;11.13;;;6.55;;
66145;SDS011;52948;60.040;30.320;2023-06-22T09:09:46;10.15;;;5.78;;
66145;SDS011;52948;60.040;30.320;2023-06-22T09:14:48;10.43;;;6.53;;
66145;SDS011;52948;60.040;30.320;2023-06-22T09:19:50;8.65;;;5.97;;
66145;SDS011;52948;60.040;30.320;2023-06-22T09:24:52;9.80;;;6.22;;
66145;SDS011;52948;60.040;30.320;2023-06-22T09:29:55;7.75;;;6.18;;
66145;SDS011;52948;60.040;30.320;2023-06-22T09:34:57;12.65;;;6.95;;
66145;SDS011;52948;60.040;30.320;2023-06-22T09:39:59;10.95;;;6.50;;
66145;SDS011;52948;60.040;30.320;2023-06-22T09:45:01;11.05;;;6.47;;
66145;SDS011;52948;60.040;30.320;2023-06-22T09:50:05;6.93;;;6.15;;
66145;SDS011;52948;60.040;30.320;2023-06-22T09:55:07;15.88;;;7.95;;
66145;SDS011;52948;60.040;30.320;2023-06-22T10:00:10;13.38;;;6.28;;
66145;SDS011;52948;60.040;30.320;2023-06-22T10:05:20;9.23;;;6.88;;
66145;SDS011;52948;60.040;30.320;2023-06-22T10:10:22;13.50;;;6.60;;
66145;SDS011;52948;60.040;30.320;2023-06-22T10:15:24;9.57;;;7.07;;
66145;SDS011;52948;60.040;30.320;2023-06-22T10:20:28;10.70;;;6.68;;
66145;SDS011;52948;60.040;30.320;2023-06-22T10:25:31;11.35;;;7.45;;
66145;SDS011;52948;60.040;30.320;2023-06-22T10:30:33;12.88;;;7.68;;
66145;SDS011;52948;60.040;30.320;2023-06-22T10:35:36;7.57;;;5.95;;
66145;SDS011;52948;60.040;30.320;2023-06-22T10:40:39;8.90;;;6.22;;
66145;SDS011;52948;60.040;30.320;2023-06-22T10:45:41;9.10;;;5.93;;
66145;SDS011;52948;60.040;30.320;2023-06-22T10:50:44;10.98;;;6.10;;
66145;SDS011;52948;60.040;30.320;2023-06-22T10:55:46;6.90;;;5.75;;
66145;SDS011;52948;60.040;30.320;2023-06-22T11:00:48;11.38;;;7.78;;
66145;SDS011;52948;60.040;30.320;2023-06-22T11:05:51;11.45;;;6.50;;
66145;SDS011;52948;60.040;30.320;2023-06-22T11:10:53;9.77;;;6.68;;
66145;SDS011;52948;60.040;30.320;2023-06-22T11:15:55;8.32;;;6.25;;
66145;SDS011;52948;60.040;30.320;2023-06-22T11:20:57;13.75;;;6.55;;
66145;SDS011;52948;60.040;30.320;2023-06-22T11:26:05;7.05;;;5.47;;
66145;SDS011;52948;60.040;30.320;2023-06-22T11:31:07;7.82;;;5.60;;
66145;SDS011;52948;60.040;30.320;2023-06-22T11:36:09;8.80;;;6.40;;
66145;SDS011;52948;60.040;30.320;2023-06-22T11:41:13;8.70;;;5.72;;
66145;SDS011;52948;60.040;30.320;2023-06-22T11:46:15;6.75;;;5.53;;
66145;SDS011;52948;60.040;30.320;2023-06-22T11:51:17;7.07;;;4.80;;
66145;SDS011;52948;60.040;30.320;2023-06-22T11:56:19;8.60;;;5.28;;
66145;SDS011;52948;60.040;30.320;2023-06-22T12:01:22;8.15;;;5.55;;
66145;SDS011;52948;60.040;30.320;2023-06-22T12:06:29;7.97;;;4.78;;
66145;SDS011;52948;60.040;30.320;2023-06-22T12:11:31;8.05;;;5.70;;
66145;SDS011;52948;60.040;30.320;2023-06-22T12:22:02;9.02;;;5.93;;
66145;SDS011;52948;60.040;30.320;2023-06-22T12:27:04;10.55;;;5.47;;
66145;SDS011;52948;60.040;30.320;2023-06-22T12:32:07;7.60;;;4.35;;
66145;SDS011;52948;60.040;30.320;2023-06-22T12:37:09;7.18;;;5.07;;
66145;SDS011;52948;60.040;30.320;2023-06-22T12:42:11;8.15;;;4.82;;
66145;SDS011;52948;60.040;30.320;2023-06-22T12:47:14;9.07;;;5.60;;
66145;SDS011;52948;60.040;30.320;2023-06-22T12:52:16;9.57;;;5.60;;
66145;SDS011;52948;60.040;30.320;2023-06-22T12:57:24;8.90;;;5.65;;
66145;SDS011;52948;60.040;30.320;2023-06-22T13:02:27;8.07;;;5.35;;
66145;SDS011;52948;60.040;30.320;2023-06-22T13:07:29;8.18;;;5.25;;
66145;SDS011;52948;60.040;30.320;2023-06-22T13:12:31;6.88;;;5.82;;
66145;SDS011;52948;60.040;30.320;2023-06-22T13:17:33;13.90;;;6.85;;
66145;SDS011;52948;60.040;30.320;2023-06-22T13:22:36;11.43;;;7.78;;
66145;SDS011;52948;60.040;30.320;2023-06-22T13:27:45;13.45;;;8.75;;
66145;SDS011;52948;60.040;30.320;2023-06-22T13:32:48;10.45;;;7.53;;
66145;SDS011;52948;60.040;30.320;2023-06-22T13:37:50;12.27;;;8.45;;
66145;SDS011;52948;60.040;30.320;2023-06-22T13:42:52;11.07;;;8.90;;
66145;SDS011;52948;60.040;30.320;2023-06-22T13:47:54;9.48;;;8.15;;
66145;SDS011;52948;60.040;30.320;2023-06-22T13:52:58;10.65;;;8.35;;
66145;SDS011;52948;60.040;30.320;2023-06-22T13:58:00;10.52;;;8.38;;
66145;SDS011;52948;60.040;30.320;2023-06-22T14:03:02;11.95;;;8.00;;
66145;SDS011;52948;60.040;30.320;2023-06-22T14:08:04;9.70;;;7.80;;
66145;SDS011;52948;60.040;30.320;2023-06-22T14:13:07;12.50;;;8.35;;
66145;SDS011;52948;60.040;30.320;2023-06-22T14:18:09;14.68;;;8.25;;
66145;SDS011;52948;60.040;30.320;2023-06-22T14:23:11;9.88;;;8.20;;
66145;SDS011;52948;60.040;30.320;2023-06-22T14:28:18;11.30;;;8.48;;
66145;SDS011;52948;60.040;30.320;2023-06-22T14:33:20;9.95;;;7.13;;
66145;SDS011;52948;60.040;30.320;2023-06-22T14:38:27;10.23;;;7.13;;
66145;SDS011;52948;60.040;30.320;2023-06-22T14:43:30;10.90;;;6.18;;
66145;SDS011;52948;60.040;30.320;2023-06-22T14:48:32;9.35;;;6.50;;
66145;SDS011;52948;60.040;30.320;2023-06-22T14:53:34;8.98;;;6.47;;
66145;SDS011;52948;60.040;30.320;2023-06-22T14:58:39;9.85;;;6.88;;
66145;SDS011;52948;60.040;30.320;2023-06-22T15:03:42;9.30;;;6.95;;
66145;SDS011;52948;60.040;30.320;2023-06-22T15:08:44;11.18;;;7.00;;
66145;SDS011;52948;60.040;30.320;2023-06-22T15:13:46;15.15;;;7.45;;
66145;SDS011;52948;60.040;30.320;2023-06-22T15:18:48;10.77;;;7.65;;
66145;SDS011;52948;60.040;30.320;2023-06-22T15:23:50;10.98;;;8.18;;
66145;SDS011;52948;60.040;30.320;2023-06-22T15:28:53;15.63;;;9.30;;
66145;SDS011;52948;60.040;30.320;2023-06-22T15:33:55;13.85;;;9.20;;
66145;SDS011;52948;60.040;30.320;2023-06-22T15:38:57;12.30;;;7.85;;
66145;SDS011;52948;60.040;30.320;2023-06-22T15:43:59;9.93;;;6.70;;
66145;SDS011;52948;60.040;30.320;2023-06-22T15:49:01;10.90;;;6.22;;
66145;SDS011;52948;60.040;30.320;2023-06-22T15:54:09;7.45;;;5.53;;
66145;SDS011;52948;60.040;30.320;2023-06-22T15:59:11;8.10;;;5.90;;
66145;SDS011;52948;60.040;30.320;2023-06-22T16:04:13;9.98;;;6.43;;
66145;SDS011;52948;60.040;30.320;2023-06-22T16:09:15;10.02;;;6.35;;
66145;SDS011;52948;60.040;30.320;2023-06-22T16:14:17;9.13;;;6.68;;
66145;SDS011;52948;60.040;30.320;2023-06-22T16:19:19;9.32;;;6.85;;
66145;SDS011;52948;60.040;30.320;2023-06-22T16:24:22;12.40;;;7.55;;
66145;SDS011;52948;60.040;30.320;2023-06-22T16:29:24;10.20;;;7.45;;
66145;SDS011;52948;60.040;30.320;2023-06-22T16:34:26;11.55;;;7.35;;
66145;SDS011;52948;60.040;30.320;2023-06-22T16:39:28;10.77;;;7.00;;
66145;SDS011;52948;60.040;30.320;2023-06-22T16:44:30;18.50;;;9.63;;
66145;SDS011;52948;60.040;30.320;2023-06-22T16:49:32;13.02;;;8.18;;
66145;SDS011;52948;60.040;30.320;2023-06-22T16:54:35;9.07;;;7.03;;
66145;SDS011;52948;60.040;30.320;2023-06-22T16:59:37;9.95;;;7.15;;
66145;SDS011;52948;60.040;30.320;2023-06-22T17:04:39;10.68;;;7.15;;
66145;SDS011;52948;60.040;30.320;2023-06-22T17:09:45;10.48;;;7.28;;
66145;SDS011;52948;60.040;30.320;2023-06-22T17:14:48;13.32;;;6.97;;
66145;SDS011;52948;60.040;30.320;2023-06-22T17:19:53;11.60;;;7.63;;
66145;SDS011;52948;60.040;30.320;2023-06-22T17:24:55;10.45;;;6.97;;
66145;SDS011;52948;60.040;30.320;2023-06-22T17:30:08;10.98;;;7.82;;
66145;SDS011;52948;60.040;30.320;2023-06-22T17:35:19;13.70;;;7.65;;
66145;SDS011;52948;60.040;30.320;2023-06-22T17:40:24;12.60;;;8.13;;
66145;SDS011;52948;60.040;30.320;2023-06-22T17:45:42;11.25;;;8.13;;
66145;SDS011;52948;60.040;30.320;2023-06-22T17:50:46;14.38;;;9.23;;
66145;SDS011;52948;60.040;30.320;2023-06-22T17:55:48;15.15;;;9.48;;
66145;SDS011;52948;60.040;30.320;2023-06-22T18:00:53;14.07;;;9.07;;
66145;SDS011;52948;60.040;30.320;2023-06-22T18:05:59;12.18;;;8.77;;
66145;SDS011;52948;60.040;30.320;2023-06-22T18:11:02;13.98;;;8.40;;
66145;SDS011;52948;60.040;30.320;2023-06-22T18:16:06;14.00;;;9.27;;
66145;SDS011;52948;60.040;30.320;2023-06-22T18:21:08;14.80;;;9.40;;
66145;SDS011;52948;60.040;30.320;2023-06-22T18:26:11;14.70;;;9.60;;
66145;SDS011;52948;60.040;30.320;2023-06-22T18:31:14;14.98;;;8.75;;
66145;SDS011;52948;60.040;30.320;2023-06-22T18:36:28;14.70;;;9.73;;
66145;SDS011;52948;60.040;30.320;2023-06-22T18:41:35;14.13;;;9.32;;
66145;SDS011;52948;60.040;30.320;2023-06-22T18:46:38;12.73;;;8.75;;
66145;SDS011;52948;60.040;30.320;2023-06-22T18:57:37;14.27;;;8.73;;
66145;SDS011;52948;60.040;30.320;2023-06-22T19:18:24;11.95;;;8.27;;
66145;SDS011;52948;60.040;30.320;2023-06-22T19:23:39;14.88;;;8.73;;
66145;SDS011;52948;60.040;30.320;2023-06-22T19:28:45;11.52;;;8.48;;
66145;SDS011;52948;60.040;30.320;2023-06-22T19:33:52;14.57;;;9.68;;
66145;SDS011;52948;60.040;30.320;2023-06-22T19:38:56;14.98;;;8.90;;
66145;SDS011;52948;60.040;30.320;2023-06-22T19:43:59;12.57;;;8.80;;
66145;SDS011;52948;60.040;30.320;2023-06-22T19:49:01;14.88;;;8.35;;
66145;SDS011;52948;60.040;30.320;2023-06-22T19:54:05;12.52;;;7.68;;
66145;SDS011;52948;60.040;30.320;2023-06-22T19:59:14;14.00;;;8.57;;
66145;SDS011;52948;60.040;30.320;2023-06-22T20:04:17;14.30;;;8.50;;
66145;SDS011;52948;60.040;30.320;2023-06-22T20:09:19;13.38;;;8.30;;
66145;SDS011;52948;60.040;30.320;2023-06-22T20:14:21;13.27;;;8.23;;
66145;SDS011;52948;60.040;30.320;2023-06-22T20:19:36;15.18;;;8.80;;
66145;SDS011;52948;60.040;30.320;2023-06-22T20:24:42;17.63;;;10.60;;
66145;SDS011;52948;60.040;30.320;2023-06-22T20:29:49;13.15;;;8.57;;
66145;SDS011;52948;60.040;30.320;2023-06-22T20:34:51;15.40;;;8.35;;
66145;SDS011;52948;60.040;30.320;2023-06-22T20:39:55;17.10;;;8.88;;
66145;SDS011;52948;60.040;30.320;2023-06-22T20:44:58;11.50;;;7.80;;
66145;SDS011;52948;60.040;30.320;2023-06-22T20:50:00;12.70;;;7.65;;
66145;SDS011;52948;60.040;30.320;2023-06-22T20:55:03;16.27;;;7.72;;
66145;SDS011;52948;60.040;30.320;2023-06-22T21:00:06;10.65;;;7.28;;
66145;SDS011;52948;60.040;30.320;2023-06-22T21:05:10;10.95;;;6.72;;
66145;SDS011;52948;60.040;30.320;2023-06-22T21:10:12;9.23;;;6.05;;
66145;SDS011;52948;60.040;30.320;2023-06-22T21:15:15;9.95;;;6.65;;
66145;SDS011;52948;60.040;30.320;2023-06-22T21:20:17;9.55;;;6.78;;
66145;SDS011;52948;60.040;30.320;2023-06-22T21:25:20;10.38;;;6.80;;
66145;SDS011;52948;60.040;30.320;2023-06-22T21:30:22;8.70;;;6.40;;
66145;SDS011;52948;60.040;30.320;2023-06-22T21:35:24;11.40;;;6.45;;
66145;SDS011;52948;60.040;30.320;2023-06-22T21:40:26;10.38;;;6.22;;
66145;SDS011;52948;60.040;30.320;2023-06-22T21:45:29;10.85;;;5.90;;
66145;SDS011;52948;60.040;30.320;2023-06-22T21:50:31;9.35;;;5.82;;
66145;SDS011;52948;60.040;30.320;2023-06-22T21:55:33;9.77;;;6.13;;
66145;SDS011;52948;60.040;30.320;2023-06-22T22:00:35;10.38;;;5.70;;
66145;SDS011;52948;60.040;30.320;2023-06-22T22:05:37;9.00;;;5.53;;
66145;SDS011;52948;60.040;30.320;2023-06-22T22:10:40;8.18;;;5.25;;
66145;SDS011;52948;60.040;30.320;2023-06-22T22:15:44;9.52;;;5.10;;
66145;SDS011;52948;60.040;30.320;2023-06-22T22:20:46;8.25;;;5.43;;
66145;SDS011;52948;60.040;30.320;2023-06-22T22:25:49;7.95;;;4.95;;
66145;SDS011;52948;60.040;30.320;2023-06-22T22:30:51;8.23;;;5.25;;
66145;SDS011;52948;60.040;30.320;2023-06-22T22:35:53;7.78;;;5.35;;
66145;SDS011;52948;60.040;30.320;2023-06-22T22:40:56;6.68;;;4.80;;
66145;SDS011;52948;60.040;30.320;2023-06-22T22:46:01;7.97;;;4.07;;
66145;SDS011;52948;60.040;30.320;2023-06-22T22:51:03;6.95;;;4.65;;
66145;SDS011;52948;60.040;30.320;2023-06-22T22:56:05;6.10;;;4.25;;
66145;SDS011;52948;60.040;30.320;2023-06-22T23:01:07;6.97;;;4.50;;
66145;SDS011;52948;60.040;30.320;2023-06-22T23:06:13;7.68;;;4.63;;
66145;SDS011;52948;60.040;30.320;2023-06-22T23:11:18;8.10;;;4.70;;
66145;SDS011;52948;60.040;30.320;2023-06-22T23:16:20;7.18;;;4.05;;
66145;SDS011;52948;60.040;30.320;2023-06-22T23:21:22;6.10;;;4.13;;
66145;SDS011;52948;60.040;30.320;2023-06-22T23:26:25;8.93;;;4.60;;
66145;SDS011;52948;60.040;30.320;2023-06-22T23:31:30;5.75;;;4.38;;
66145;SDS011;52948;60.040;30.320;2023-06-22T23:36:35;5.93;;;4.57;;
66145;SDS011;52948;60.040;30.320;2023-06-22T23:41:37;7.07;;;4.55;;
66145;SDS011;52948;60.040;30.320;2023-06-22T23:46:40;6.20;;;4.65;;
66145;SDS011;52948;60.040;30.320;2023-06-22T23:51:45;6.60;;;4.78;;
66145;SDS011;52948;60.040;30.320;2023-06-22T23:56:50;8.90;;;4.50;;
